PMDY METAR and TAF weather

Enter ICAO airport designator
Station Type Date Time Source
PMDY METAR 2019/06/27 04:12 UTC NOAA

PMDY 270412Z AUTO 35008KT 6SM HZ FEW002 SCT016 BKN029 25/21 A2987 RMK AO2


Station Type Date Time Source
PMDY Decoded METAR 2019/06/27 04:12 UTC NOAA

Sand Island, Henderson Field Airport, HI, United States (PMDY) 28-13N 177-22W 6M
Jun 27, 2019 - 12:12 AM EDT / 2019.06.27 0412 UTC
Wind: from the N (350 degrees) at 9 MPH (8 KT):0
Visibility: 6 mile(s):0
Sky conditions: mostly cloudy
Weather: haze
Temperature: 77 F (25 C)
Dew Point: 69 F (21 C)
Relative Humidity: 78%
Pressure (altimeter): 29.87 in. Hg (1011 hPa)
ob: PMDY 270412Z AUTO 35008KT 6SM HZ FEW002 SCT016 BKN029 25/21 A2987 RMK AO2
cycle: 4

Station Type Date Time Source
PMDY TAF 2019/06/26 18:45 UTC NOAA

TAF PMDY 261743Z 2618/2718 34008KT P6SM SCT015 OVC025
FM270600 01008KT P6SM SCT025 BKN035

Example: see airport list